createdAt,value
2023-03-08T00:01:33.974Z,6.55
2023-03-08T00:04:35.569Z,5.13
2023-03-08T00:07:37.716Z,4.53
2023-03-08T00:10:39.039Z,4.00
2023-03-08T00:13:41.209Z,6.95
2023-03-08T00:16:42.562Z,4.50
2023-03-08T00:19:44.422Z,5.33
2023-03-08T00:22:45.918Z,4.60
2023-03-08T00:25:51.605Z,5.20
2023-03-08T00:28:53.749Z,7.07
2023-03-08T00:31:55.125Z,6.70
2023-03-08T00:34:56.544Z,7.47
2023-03-08T00:37:57.838Z,5.70
2023-03-08T00:40:59.992Z,4.57
2023-03-08T00:44:02.125Z,8.50
2023-03-08T00:47:03.539Z,7.10
2023-03-08T00:50:06.354Z,5.43
2023-03-08T00:53:07.899Z,5.40
2023-03-08T00:56:09.393Z,6.47
2023-03-08T00:59:11.512Z,10.95
2023-03-08T01:02:12.844Z,7.57
2023-03-08T01:05:14.412Z,7.50
2023-03-08T01:08:17.224Z,7.07
2023-03-08T01:11:21.352Z,8.10
2023-03-08T01:14:23.464Z,6.50
2023-03-08T01:17:25.001Z,8.15
2023-03-08T01:20:26.530Z,8.37
2023-03-08T01:23:28.280Z,7.07
2023-03-08T01:26:29.701Z,8.20
2023-03-08T01:29:31.688Z,6.72
2023-03-08T01:32:33.042Z,7.63
2023-03-08T01:35:34.627Z,6.80
2023-03-08T01:38:36.514Z,6.30
2023-03-08T01:41:38.568Z,7.50
2023-03-08T01:44:52.375Z,8.63
2023-03-08T01:47:53.852Z,9.10
2023-03-08T01:50:55.417Z,8.73
2023-03-08T01:53:59.600Z,7.30
2023-03-08T01:57:05.300Z,7.97
2023-03-08T02:00:09.677Z,7.60
2023-03-08T02:03:11.747Z,8.82
2023-03-08T02:06:14.587Z,8.37
2023-03-08T02:09:15.918Z,8.03
2023-03-08T02:12:17.798Z,7.70
2023-03-08T02:15:21.272Z,10.48
2023-03-08T02:21:43.778Z,9.57
2023-03-08T02:24:45.803Z,8.53
2023-03-08T02:27:47.957Z,10.82
2023-03-08T02:30:49.782Z,13.38
2023-03-08T02:33:51.246Z,9.13
2023-03-08T02:36:52.703Z,8.23
2023-03-08T02:39:54.749Z,7.57
2023-03-08T02:42:56.194Z,7.93
2023-03-08T02:45:57.504Z,9.65
2023-03-08T02:48:58.926Z,7.95
2023-03-08T02:52:00.386Z,10.20
2023-03-08T02:55:02.396Z,9.73
2023-03-08T02:58:04.464Z,8.65
2023-03-08T03:01:10.899Z,10.40
2023-03-08T03:04:12.534Z,10.13
2023-03-08T03:07:13.825Z,10.53
2023-03-08T03:10:16.143Z,10.13
2023-03-08T03:13:17.615Z,11.80
2023-03-08T03:16:19.001Z,10.68
2023-03-08T03:19:20.547Z,13.18
2023-03-08T03:22:21.877Z,11.57
2023-03-08T03:25:24.017Z,11.67
2023-03-08T03:28:25.526Z,10.35
2023-03-08T03:31:27.193Z,12.02
2023-03-08T03:34:29.191Z,12.02
2023-03-08T03:37:30.560Z,12.27
2023-03-08T03:40:32.714Z,10.90
2023-03-08T03:43:35.121Z,13.18
2023-03-08T03:46:36.591Z,13.00
2023-03-08T03:49:38.156Z,12.23
2023-03-08T03:52:39.537Z,13.53
2023-03-08T03:55:41.671Z,11.83
2023-03-08T03:58:43.324Z,11.52
2023-03-08T04:01:44.668Z,12.23
2023-03-08T04:04:48.914Z,12.25
2023-03-08T04:07:50.215Z,11.10
2023-03-08T04:10:52.344Z,13.03
2023-03-08T04:13:53.898Z,14.38
2023-03-08T04:16:55.760Z,12.30
2023-03-08T04:19:57.259Z,12.40
2023-03-08T04:22:58.554Z,12.83
2023-03-08T04:26:00.881Z,10.83
2023-03-08T04:29:04.928Z,10.98
2023-03-08T04:32:06.894Z,12.43
2023-03-08T04:35:08.987Z,9.45
2023-03-08T04:38:10.715Z,11.67
2023-03-08T04:41:13.445Z,10.83
2023-03-08T04:44:14.756Z,10.40
2023-03-08T04:47:16.142Z,11.85
2023-03-08T04:50:17.624Z,11.88
2023-03-08T04:53:19.034Z,11.33
2023-03-08T04:56:21.301Z,10.37
2023-03-08T04:59:22.815Z,11.15
2023-03-08T05:02:24.318Z,12.63
2023-03-08T05:05:25.688Z,10.93
2023-03-08T05:08:27.244Z,11.10
2023-03-08T05:11:29.269Z,12.27
2023-03-08T05:14:30.592Z,11.70
2023-03-08T05:17:32.031Z,11.23
2023-03-08T05:20:33.346Z,12.77
2023-03-08T05:23:34.836Z,11.00
2023-03-08T05:26:36.873Z,11.00
2023-03-08T05:29:38.364Z,11.43
2023-03-08T05:32:39.896Z,13.23
2023-03-08T05:35:41.379Z,12.10
2023-03-08T05:38:43.441Z,12.33
2023-03-08T05:41:45.489Z,11.57
2023-03-08T05:44:46.946Z,13.13
2023-03-08T05:47:48.260Z,12.52
2023-03-08T05:50:49.583Z,11.38
2023-03-08T05:53:51.008Z,11.20
2023-03-08T05:56:53.009Z,13.33
2023-03-08T05:59:54.345Z,12.60
2023-03-08T06:02:58.826Z,10.95
2023-03-08T06:06:00.142Z,14.40
2023-03-08T06:09:01.611Z,14.90
2023-03-08T06:12:03.861Z,12.57
2023-03-08T06:15:06.546Z,14.25
2023-03-08T06:18:07.848Z,14.07
2023-03-08T06:21:12.614Z,16.63
2023-03-08T06:24:13.951Z,13.57
2023-03-08T06:27:16.419Z,11.93
2023-03-08T06:30:18.205Z,12.38
2023-03-08T06:33:21.257Z,15.68
2023-03-08T06:36:22.699Z,11.98
2023-03-08T06:39:24.021Z,13.93
2023-03-08T06:42:40.226Z,10.60
2023-03-08T06:45:42.894Z,13.52
2023-03-08T06:48:44.771Z,12.13
2023-03-08T06:51:46.247Z,12.35
2023-03-08T06:54:47.694Z,15.73
2023-03-08T06:57:49.647Z,13.17
2023-03-08T07:00:51.163Z,11.23
2023-03-08T07:03:52.687Z,12.65
2023-03-08T07:06:54.102Z,12.00
2023-03-08T07:09:55.597Z,13.07
2023-03-08T07:12:57.534Z,12.37
2023-03-08T07:15:59.024Z,12.00
2023-03-08T07:19:01.741Z,12.23
2023-03-08T07:22:03.130Z,12.23
2023-03-08T07:25:05.107Z,12.23
2023-03-08T07:28:07.259Z,15.60
2023-03-08T07:31:11.387Z,12.43
2023-03-08T07:34:12.924Z,13.05
2023-03-08T07:37:15.487Z,11.90
2023-03-08T07:40:17.655Z,11.97
2023-03-08T07:43:19.620Z,10.57
2023-03-08T07:46:21.211Z,11.27
2023-03-08T07:49:22.590Z,11.30
2023-03-08T07:52:27.666Z,11.82
2023-03-08T07:55:29.006Z,10.80
2023-03-08T07:58:31.695Z,12.93
2023-03-08T08:01:33.217Z,9.93
2023-03-08T08:04:34.636Z,12.07
2023-03-08T08:07:35.975Z,12.32
2023-03-08T08:10:37.292Z,11.53
2023-03-08T08:13:39.558Z,10.50
2023-03-08T08:16:40.934Z,11.15
2023-03-08T08:19:42.232Z,11.27
2023-03-08T08:22:43.560Z,9.95
2023-03-08T08:25:45.901Z,11.50
2023-03-08T08:28:51.493Z,11.10
2023-03-08T08:31:52.861Z,11.07
2023-03-08T08:34:54.194Z,10.43
2023-03-08T08:37:55.600Z,10.85
2023-03-08T08:40:59.166Z,10.90
2023-03-08T08:44:01.164Z,12.43
2023-03-08T08:47:02.705Z,11.57
2023-03-08T08:50:04.833Z,11.55
2023-03-08T08:53:06.402Z,10.50
2023-03-08T08:56:25.608Z,11.47
2023-03-08T08:59:28.913Z,9.63
2023-03-08T09:02:30.342Z,10.05
2023-03-08T09:05:32.656Z,9.27
2023-03-08T09:08:33.977Z,9.95
2023-03-08T09:11:39.912Z,8.57
2023-03-08T09:14:44.665Z,9.03
2023-03-08T09:17:45.955Z,8.93
2023-03-08T09:20:47.342Z,9.57
2023-03-08T09:23:48.774Z,8.30
2023-03-08T09:26:50.045Z,9.47
2023-03-08T09:29:52.100Z,7.47
2023-03-08T09:32:53.494Z,6.80
2023-03-08T09:35:56.452Z,6.60
2023-03-08T09:38:57.831Z,6.65
2023-03-08T09:42:01.010Z,8.37
2023-03-08T09:45:20.132Z,6.90
2023-03-08T09:48:26.819Z,6.65
2023-03-08T09:51:34.659Z,7.32
2023-03-08T09:54:38.563Z,6.70
2023-03-08T09:57:46.049Z,6.57
2023-03-08T10:00:48.153Z,6.23
2023-03-08T10:04:25.382Z,8.07
2023-03-08T10:07:35.262Z,7.35
2023-03-08T10:10:47.585Z,6.65
2023-03-08T10:13:52.656Z,9.57
2023-03-08T10:16:59.851Z,6.20
2023-03-08T10:20:08.611Z,9.80
2023-03-08T10:23:15.827Z,7.28
2023-03-08T10:26:18.179Z,6.45
2023-03-08T10:29:19.670Z,8.17
2023-03-08T10:32:22.769Z,7.97
2023-03-08T10:35:33.349Z,7.05
2023-03-08T10:38:36.582Z,5.80
2023-03-08T10:41:41.863Z,6.78
2023-03-08T10:44:46.977Z,6.73
2023-03-08T10:47:55.585Z,6.15
2023-03-08T10:51:01.938Z,7.32
2023-03-08T10:54:04.990Z,7.03
2023-03-08T10:57:19.220Z,8.25
2023-03-08T11:00:36.152Z,6.47
2023-03-08T11:03:38.309Z,6.78
2023-03-08T11:06:39.636Z,7.43
2023-03-08T11:09:41.127Z,6.72
2023-03-08T11:12:43.791Z,5.68
2023-03-08T11:15:54.225Z,7.53
2023-03-08T11:19:05.706Z,6.15
2023-03-08T11:22:18.472Z,8.20
2023-03-08T11:25:34.125Z,7.25
2023-03-08T11:28:48.243Z,7.05
2023-03-08T11:31:59.249Z,8.37
2023-03-08T11:35:14.239Z,6.95
2023-03-08T11:38:20.474Z,6.22
2023-03-08T11:41:27.190Z,7.90
2023-03-08T11:44:40.905Z,7.22
2023-03-08T11:48:14.230Z,7.70
2023-03-08T11:51:21.905Z,7.57
2023-03-08T11:54:43.297Z,6.55
2023-03-08T11:57:49.080Z,7.22
2023-03-08T12:00:54.794Z,8.73
2023-03-08T12:04:04.419Z,6.45
2023-03-08T12:07:15.892Z,6.60
2023-03-08T12:10:22.066Z,5.75
2023-03-08T12:13:28.647Z,5.07
2023-03-08T12:16:37.784Z,5.10
2023-03-08T12:19:43.027Z,5.45
2023-03-08T12:22:47.463Z,5.30
2023-03-08T12:25:52.419Z,5.35
2023-03-08T12:28:58.128Z,6.00
2023-03-08T12:32:01.326Z,6.10
2023-03-08T12:35:04.995Z,6.20
2023-03-08T12:38:35.339Z,6.88
2023-03-08T12:41:36.764Z,5.82
2023-03-08T12:44:38.967Z,6.50
2023-03-08T12:47:40.397Z,6.13
2023-03-08T12:50:45.849Z,6.72
2023-03-08T12:53:57.925Z,7.35
2023-03-08T12:57:01.528Z,6.43
2023-03-08T13:00:09.870Z,6.75
2023-03-08T13:03:27.535Z,5.43
2023-03-08T13:06:57.343Z,6.13
2023-03-08T13:10:07.986Z,6.80
2023-03-08T13:13:38.839Z,6.38
2023-03-08T13:16:40.989Z,6.30
2023-03-08T13:19:42.862Z,5.97
2023-03-08T13:22:58.679Z,6.65
2023-03-08T13:26:24.042Z,6.30
2023-03-08T13:32:50.207Z,6.68
2023-03-08T13:35:56.887Z,7.27
2023-03-08T13:39:00.214Z,7.45
2023-03-08T13:42:07.810Z,7.05
2023-03-08T13:45:16.454Z,8.23
2023-03-08T13:48:19.172Z,7.47
2023-03-08T13:51:26.520Z,6.53
2023-03-08T13:54:31.748Z,7.18
2023-03-08T13:57:36.986Z,8.52
2023-03-08T14:00:38.793Z,9.38
2023-03-08T14:03:42.072Z,7.78
2023-03-08T14:06:49.819Z,7.40
2023-03-08T14:09:51.284Z,7.40
2023-03-08T14:12:53.695Z,7.45
2023-03-08T14:15:57.934Z,8.50
2023-03-08T14:19:08.294Z,9.70
2023-03-08T14:22:13.317Z,9.27
2023-03-08T14:25:24.608Z,9.25
2023-03-08T14:28:35.797Z,8.73
2023-03-08T14:31:38.223Z,13.48
2023-03-08T14:34:41.693Z,12.55
2023-03-08T14:37:44.736Z,12.83
2023-03-08T14:40:48.790Z,18.27
2023-03-08T14:43:51.170Z,16.52
2023-03-08T14:46:57.687Z,16.75
2023-03-08T14:50:02.061Z,13.05
2023-03-08T14:53:03.591Z,10.03
2023-03-08T14:56:11.174Z,15.32
2023-03-08T14:59:25.243Z,11.20
2023-03-08T15:02:28.774Z,10.98
2023-03-08T15:05:30.531Z,10.43
2023-03-08T15:08:32.161Z,9.63
2023-03-08T15:11:34.261Z,12.87
2023-03-08T15:14:36.532Z,9.93
2023-03-08T15:17:37.852Z,10.48
2023-03-08T15:20:44.020Z,11.77
2023-03-08T15:23:46.983Z,11.20
2023-03-08T15:26:48.444Z,11.37
2023-03-08T15:29:50.435Z,9.87
2023-03-08T15:32:51.985Z,9.98
2023-03-08T15:35:53.494Z,11.18
2023-03-08T15:38:54.944Z,10.25
2023-03-08T15:41:56.474Z,9.80
2023-03-08T15:44:58.582Z,9.50
2023-03-08T15:48:01.975Z,10.43
2023-03-08T15:51:03.891Z,10.50
2023-03-08T15:54:06.230Z,10.73
2023-03-08T15:57:07.689Z,9.33
2023-03-08T16:00:12.204Z,11.33
2023-03-08T16:03:14.155Z,10.27
2023-03-08T16:06:16.998Z,11.10
2023-03-08T16:09:18.301Z,10.50
2023-03-08T16:12:19.778Z,11.83
2023-03-08T16:15:22.091Z,11.43
2023-03-08T16:18:23.547Z,10.00
2023-03-08T16:21:24.820Z,11.63
2023-03-08T16:24:26.371Z,12.23
2023-03-08T16:27:29.676Z,12.03
2023-03-08T16:30:32.824Z,12.00
2023-03-08T16:33:34.758Z,13.18
2023-03-08T16:36:36.147Z,11.45
2023-03-08T16:39:37.463Z,11.55
2023-03-08T16:42:38.801Z,10.93
2023-03-08T16:45:52.940Z,15.03
2023-03-08T16:48:55.199Z,21.30
2023-03-08T16:51:56.661Z,20.88
2023-03-08T16:54:57.969Z,22.65
2023-03-08T16:57:59.545Z,17.93
2023-03-08T17:01:01.599Z,17.03
2023-03-08T17:04:02.939Z,15.77
2023-03-08T17:07:07.666Z,15.20
2023-03-08T17:10:10.157Z,14.75
2023-03-08T17:13:12.062Z,17.87
2023-03-08T17:16:14.091Z,17.07
2023-03-08T17:19:15.471Z,15.43
2023-03-08T17:22:16.874Z,14.27
2023-03-08T17:25:18.210Z,15.27
2023-03-08T17:28:19.526Z,15.60
2023-03-08T17:31:22.879Z,13.60
2023-03-08T17:34:24.250Z,14.07
2023-03-08T17:37:25.570Z,14.02
2023-03-08T17:40:27.717Z,15.55
2023-03-08T17:43:29.088Z,14.90
2023-03-08T17:46:31.164Z,12.73
2023-03-08T17:49:33.422Z,12.95
2023-03-08T17:52:34.931Z,13.05
2023-03-08T17:55:40.991Z,13.40
2023-03-08T17:58:42.874Z,15.53
2023-03-08T18:01:44.951Z,15.13
2023-03-08T18:04:48.084Z,15.60
2023-03-08T18:07:49.419Z,17.15
2023-03-08T18:10:50.904Z,14.48
2023-03-08T18:13:52.569Z,15.87
2023-03-08T18:16:54.643Z,15.33
2023-03-08T18:19:56.097Z,14.52
2023-03-08T18:22:57.401Z,15.40
2023-03-08T18:25:59.610Z,13.70
2023-03-08T18:29:00.912Z,13.60
2023-03-08T18:32:03.804Z,12.63
2023-03-08T18:35:06.092Z,14.02
2023-03-08T18:38:07.395Z,14.23
2023-03-08T18:41:14.460Z,13.32
2023-03-08T18:44:16.088Z,13.40
2023-03-08T18:47:18.743Z,13.13
2023-03-08T18:50:20.975Z,12.13
2023-03-08T18:53:22.388Z,11.23
2023-03-08T18:56:25.185Z,12.40
2023-03-08T18:59:27.300Z,11.83
2023-03-08T19:02:29.527Z,10.40
2023-03-08T19:05:30.812Z,11.18
2023-03-08T19:08:32.181Z,12.30
2023-03-08T19:11:33.994Z,11.73
2023-03-08T19:14:35.406Z,9.83
2023-03-08T19:17:37.478Z,10.90
2023-03-08T19:20:40.919Z,11.50
2023-03-08T19:27:04.353Z,8.55
2023-03-08T19:30:06.748Z,10.90
2023-03-08T19:33:11.240Z,9.90
2023-03-08T19:36:17.424Z,10.10
2023-03-08T19:39:21.350Z,10.15
2023-03-08T19:42:22.951Z,11.07
2023-03-08T19:45:24.451Z,11.97
2023-03-08T19:48:26.551Z,12.37
2023-03-08T19:51:27.874Z,12.38
2023-03-08T19:54:31.242Z,11.40
2023-03-08T19:57:33.329Z,11.57
2023-03-08T20:00:34.689Z,11.53
2023-03-08T20:03:37.388Z,11.80
2023-03-08T20:06:40.246Z,11.93
2023-03-08T20:09:42.271Z,13.27
2023-03-08T20:12:43.705Z,14.40
2023-03-08T20:15:45.185Z,11.83
2023-03-08T20:18:48.981Z,13.97
2023-03-08T20:21:56.271Z,12.95
2023-03-08T20:24:57.573Z,17.05
2023-03-08T20:27:58.873Z,15.40
2023-03-08T20:31:00.343Z,18.67
2023-03-08T20:34:02.785Z,16.30
2023-03-08T20:37:04.075Z,18.55
2023-03-08T20:40:06.294Z,18.15
2023-03-08T20:43:10.161Z,16.38
2023-03-08T20:46:13.562Z,17.63
2023-03-08T20:49:16.033Z,17.70
2023-03-08T20:52:17.378Z,17.02
2023-03-08T20:55:19.022Z,18.88
2023-03-08T20:58:20.473Z,17.55
2023-03-08T21:01:24.541Z,19.50
2023-03-08T21:04:26.767Z,16.23
2023-03-08T21:07:28.088Z,18.92
2023-03-08T21:10:32.236Z,18.13
2023-03-08T21:13:33.736Z,16.70
2023-03-08T21:16:35.354Z,15.27
2023-03-08T21:19:37.522Z,18.60
2023-03-08T21:22:38.805Z,17.42
2023-03-08T21:25:40.268Z,16.70
2023-03-08T21:28:41.871Z,15.48
2023-03-08T21:31:45.269Z,15.53
2023-03-08T21:34:47.411Z,14.93
2023-03-08T21:37:48.705Z,14.80
2023-03-08T21:40:50.179Z,16.65
2023-03-08T21:43:52.063Z,15.38
2023-03-08T21:46:54.986Z,16.57
2023-03-08T21:49:57.160Z,16.50
2023-03-08T21:52:58.690Z,17.65
2023-03-08T21:56:00.251Z,14.60
2023-03-08T21:59:01.592Z,16.42
2023-03-08T22:02:03.056Z,17.47
2023-03-08T22:05:06.245Z,16.27
2023-03-08T22:08:08.006Z,14.35
2023-03-08T22:11:09.733Z,16.23
2023-03-08T22:14:11.407Z,15.90
2023-03-08T22:17:13.340Z,14.50
2023-03-08T22:20:15.385Z,18.23
2023-03-08T22:23:16.818Z,15.07
2023-03-08T22:26:19.040Z,15.00
2023-03-08T22:29:20.361Z,14.13
2023-03-08T22:32:22.257Z,15.60
2023-03-08T22:35:24.330Z,14.20
2023-03-08T22:38:25.777Z,13.98
2023-03-08T22:41:27.904Z,15.20
2023-03-08T22:44:29.494Z,12.10
2023-03-08T22:47:30.964Z,14.47
2023-03-08T22:50:33.014Z,13.57
2023-03-08T22:53:34.796Z,16.35
2023-03-08T22:56:36.608Z,14.43
2023-03-08T22:59:38.058Z,15.10
2023-03-08T23:02:40.034Z,13.75
2023-03-08T23:05:42.135Z,14.90
2023-03-08T23:08:43.455Z,15.05
2023-03-08T23:11:45.214Z,14.20
2023-03-08T23:14:46.484Z,13.20
2023-03-08T23:17:47.930Z,12.95
2023-03-08T23:20:50.023Z,12.23
2023-03-08T23:23:51.473Z,13.50
2023-03-08T23:26:59.629Z,13.18
2023-03-08T23:30:00.938Z,12.30
2023-03-08T23:33:02.572Z,13.95
2023-03-08T23:36:05.667Z,13.77
2023-03-08T23:39:07.590Z,14.13
2023-03-08T23:42:08.877Z,13.55
2023-03-08T23:45:10.676Z,16.13
2023-03-08T23:48:12.189Z,14.27
2023-03-08T23:51:16.198Z,18.63
2023-03-08T23:54:17.705Z,18.00
2023-03-08T23:57:19.083Z,19.38
